sensor_id;sensor_type;location;lat;lon;timestamp;temperature;humidity
24636;DHT22;12772;49.794;10.024;2023-04-09T00:01:54;10.40;45.00
24636;DHT22;12772;49.794;10.024;2023-04-09T00:05:56;10.20;44.90
24636;DHT22;12772;49.794;10.024;2023-04-09T00:09:58;10.20;44.80
24636;DHT22;12772;49.794;10.024;2023-04-09T00:14:00;10.50;45.10
24636;DHT22;12772;49.794;10.024;2023-04-09T00:18:02;10.50;45.10
24636;DHT22;12772;49.794;10.024;2023-04-09T00:22:05;10.00;44.60
24636;DHT22;12772;49.794;10.024;2023-04-09T00:26:07;10.40;45.20
24636;DHT22;12772;49.794;10.024;2023-04-09T00:30:09;10.00;44.80
24636;DHT22;12772;49.794;10.024;2023-04-09T00:34:11;10.50;45.50
24636;DHT22;12772;49.794;10.024;2023-04-09T00:38:13;10.40;45.50
24636;DHT22;12772;49.794;10.024;2023-04-09T00:42:16;10.20;45.40
24636;DHT22;12772;49.794;10.024;2023-04-09T00:46:18;10.60;45.90
24636;DHT22;12772;49.794;10.024;2023-04-09T00:50:20;10.20;45.30
24636;DHT22;12772;49.794;10.024;2023-04-09T00:54:22;10.50;45.90
24636;DHT22;12772;49.794;10.024;2023-04-09T00:58:24;10.40;45.80
24636;DHT22;12772;49.794;10.024;2023-04-09T01:02:27;10.20;45.80
24636;DHT22;12772;49.794;10.024;2023-04-09T01:07:02;10.50;46.20
24636;DHT22;12772;49.794;10.024;2023-04-09T01:11:13;10.40;46.30
24636;DHT22;12772;49.794;10.024;2023-04-09T01:15:27;10.40;46.50
24636;DHT22;12772;49.794;10.024;2023-04-09T01:23:59;10.30;46.60
24636;DHT22;12772;49.794;10.024;2023-04-09T01:28:39;10.30;46.70
24636;DHT22;12772;49.794;10.024;2023-04-09T01:32:39;10.40;46.80
24636;DHT22;12772;49.794;10.024;2023-04-09T01:36:46;10.30;46.80
24636;DHT22;12772;49.794;10.024;2023-04-09T01:40:50;10.00;46.60
24636;DHT22;12772;49.794;10.024;2023-04-09T01:44:53;10.10;47.00
24636;DHT22;12772;49.794;10.024;2023-04-09T01:48:56;9.90;48.10
24636;DHT22;12772;49.794;10.024;2023-04-09T01:52:59;10.30;47.30
24636;DHT22;12772;49.794;10.024;2023-04-09T01:57:02;10.30;47.30
24636;DHT22;12772;49.794;10.024;2023-04-09T02:01:08;9.90;48.20
24636;DHT22;12772;49.794;10.024;2023-04-09T02:05:13;10.00;47.20
24636;DHT22;12772;49.794;10.024;2023-04-09T02:09:17;9.90;48.40
24636;DHT22;12772;49.794;10.024;2023-04-09T02:13:21;10.10;47.40
24636;DHT22;12772;49.794;10.024;2023-04-09T02:17:24;10.30;47.60
24636;DHT22;12772;49.794;10.024;2023-04-09T02:21:26;10.30;47.60
24636;DHT22;12772;49.794;10.024;2023-04-09T02:25:29;10.00;47.20
24636;DHT22;12772;49.794;10.024;2023-04-09T02:29:31;10.20;47.60
24636;DHT22;12772;49.794;10.024;2023-04-09T02:33:33;9.80;48.50
24636;DHT22;12772;49.794;10.024;2023-04-09T02:37:35;10.30;48.10
24636;DHT22;12772;49.794;10.024;2023-04-09T02:41:37;10.20;48.40
24636;DHT22;12772;49.794;10.024;2023-04-09T02:45:39;10.20;48.30
24636;DHT22;12772;49.794;10.024;2023-04-09T02:49:41;10.10;48.40
24636;DHT22;12772;49.794;10.024;2023-04-09T02:53:43;10.10;48.60
24636;DHT22;12772;49.794;10.024;2023-04-09T02:57:45;10.00;48.50
24636;DHT22;12772;49.794;10.024;2023-04-09T03:01:47;10.20;48.90
24636;DHT22;12772;49.794;10.024;2023-04-09T03:05:49;10.20;48.90
24636;DHT22;12772;49.794;10.024;2023-04-09T03:09:51;10.10;49.00
24636;DHT22;12772;49.794;10.024;2023-04-09T03:13:53;9.70;49.60
24636;DHT22;12772;49.794;10.024;2023-04-09T03:17:55;10.10;49.00
24636;DHT22;12772;49.794;10.024;2023-04-09T03:21:57;9.70;49.80
24636;DHT22;12772;49.794;10.024;2023-04-09T03:26:03;10.10;49.00
24636;DHT22;12772;49.794;10.024;2023-04-09T03:30:06;10.10;49.20
24636;DHT22;12772;49.794;10.024;2023-04-09T03:34:08;10.40;49.60
24636;DHT22;12772;49.794;10.024;2023-04-09T03:38:10;9.90;50.30
24636;DHT22;12772;49.794;10.024;2023-04-09T03:42:12;10.20;49.40
24636;DHT22;12772;49.794;10.024;2023-04-09T03:46:15;9.80;50.20
24636;DHT22;12772;49.794;10.024;2023-04-09T03:50:17;9.80;50.10
24636;DHT22;12772;49.794;10.024;2023-04-09T03:54:20;10.10;49.20
24636;DHT22;12772;49.794;10.024;2023-04-09T03:58:22;10.10;49.30
24636;DHT22;12772;49.794;10.024;2023-04-09T04:02:24;9.80;50.30
24636;DHT22;12772;49.794;10.024;2023-04-09T04:06:26;9.90;50.50
24636;DHT22;12772;49.794;10.024;2023-04-09T04:10:28;9.60;50.10
24636;DHT22;12772;49.794;10.024;2023-04-09T04:14:30;9.60;49.90
24636;DHT22;12772;49.794;10.024;2023-04-09T04:18:32;9.90;50.40
24636;DHT22;12772;49.794;10.024;2023-04-09T04:22:34;9.70;50.30
24636;DHT22;12772;49.794;10.024;2023-04-09T04:26:36;9.90;50.60
24636;DHT22;12772;49.794;10.024;2023-04-09T04:30:41;9.50;50.20
24636;DHT22;12772;49.794;10.024;2023-04-09T04:34:43;10.00;49.50
24636;DHT22;12772;49.794;10.024;2023-04-09T04:38:49;10.10;49.70
24636;DHT22;12772;49.794;10.024;2023-04-09T04:42:51;9.80;50.50
24636;DHT22;12772;49.794;10.024;2023-04-09T04:46:53;10.00;49.40
24636;DHT22;12772;49.794;10.024;2023-04-09T04:50:59;10.20;49.70
24636;DHT22;12772;49.794;10.024;2023-04-09T04:55:01;9.80;50.30
24636;DHT22;12772;49.794;10.024;2023-04-09T04:59:03;9.70;50.10
24636;DHT22;12772;49.794;10.024;2023-04-09T05:03:05;10.00;49.30
24636;DHT22;12772;49.794;10.024;2023-04-09T05:07:07;9.70;50.30
24636;DHT22;12772;49.794;10.024;2023-04-09T05:11:12;9.70;50.40
24636;DHT22;12772;49.794;10.024;2023-04-09T05:15:16;10.00;49.50
24636;DHT22;12772;49.794;10.024;2023-04-09T05:19:18;9.70;50.60
24636;DHT22;12772;49.794;10.024;2023-04-09T05:23:20;10.00;49.60
24636;DHT22;12772;49.794;10.024;2023-04-09T05:27:22;10.00;49.60
24636;DHT22;12772;49.794;10.024;2023-04-09T05:31:25;9.70;50.40
24636;DHT22;12772;49.794;10.024;2023-04-09T05:35:27;9.80;50.40
24636;DHT22;12772;49.794;10.024;2023-04-09T05:39:31;9.80;50.40
24636;DHT22;12772;49.794;10.024;2023-04-09T05:43:33;9.90;50.30
24636;DHT22;12772;49.794;10.024;2023-04-09T05:47:36;9.70;50.10
24636;DHT22;12772;49.794;10.024;2023-04-09T05:51:38;9.60;49.90
24636;DHT22;12772;49.794;10.024;2023-04-09T05:55:40;10.20;49.20
24636;DHT22;12772;49.794;10.024;2023-04-09T05:59:42;9.50;49.60
24636;DHT22;12772;49.794;10.024;2023-04-09T06:03:44;9.70;49.80
24636;DHT22;12772;49.794;10.024;2023-04-09T06:07:46;10.20;49.10
24636;DHT22;12772;49.794;10.024;2023-04-09T06:11:48;9.70;49.60
24636;DHT22;12772;49.794;10.024;2023-04-09T06:15:50;10.00;48.80
24636;DHT22;12772;49.794;10.024;2023-04-09T06:19:52;10.20;49.10
24636;DHT22;12772;49.794;10.024;2023-04-09T06:23:54;9.90;50.00
24636;DHT22;12772;49.794;10.024;2023-04-09T06:27:56;10.00;49.20
24636;DHT22;12772;49.794;10.024;2023-04-09T06:31:58;9.80;50.20
24636;DHT22;12772;49.794;10.024;2023-04-09T06:36:00;10.20;49.60
24636;DHT22;12772;49.794;10.024;2023-04-09T06:40:02;10.20;49.80
24636;DHT22;12772;49.794;10.024;2023-04-09T06:44:04;10.40;50.00
24636;DHT22;12772;49.794;10.024;2023-04-09T06:48:06;10.10;49.60
24636;DHT22;12772;49.794;10.024;2023-04-09T06:52:08;10.40;49.30
24636;DHT22;12772;49.794;10.024;2023-04-09T06:56:10;10.40;48.90
24636;DHT22;12772;49.794;10.024;2023-04-09T07:00:13;10.30;48.40
24636;DHT22;12772;49.794;10.024;2023-04-09T07:04:15;10.50;48.60
24636;DHT22;12772;49.794;10.024;2023-04-09T07:08:17;10.10;47.90
24636;DHT22;12772;49.794;10.024;2023-04-09T07:12:32;10.10;47.90
24636;DHT22;12772;49.794;10.024;2023-04-09T07:16:35;10.40;48.40
24636;DHT22;12772;49.794;10.024;2023-04-09T07:20:37;10.50;48.50
24636;DHT22;12772;49.794;10.024;2023-04-09T07:24:39;10.50;48.30
24636;DHT22;12772;49.794;10.024;2023-04-09T07:28:41;10.60;48.60
24636;DHT22;12772;49.794;10.024;2023-04-09T07:32:43;10.60;48.50
24636;DHT22;12772;49.794;10.024;2023-04-09T07:36:45;10.60;47.70
24636;DHT22;12772;49.794;10.024;2023-04-09T07:40:48;10.70;47.40
24636;DHT22;12772;49.794;10.024;2023-04-09T07:44:50;11.10;47.40
24636;DHT22;12772;49.794;10.024;2023-04-09T07:48:52;11.30;46.70
24636;DHT22;12772;49.794;10.024;2023-04-09T07:52:54;11.50;46.10
24636;DHT22;12772;49.794;10.024;2023-04-09T07:56:58;11.40;46.70
24636;DHT22;12772;49.794;10.024;2023-04-09T08:01:01;11.60;45.60
24636;DHT22;12772;49.794;10.024;2023-04-09T08:05:03;11.40;45.40
24636;DHT22;12772;49.794;10.024;2023-04-09T08:09:06;11.90;45.90
24636;DHT22;12772;49.794;10.024;2023-04-09T08:13:08;12.10;44.60
24636;DHT22;12772;49.794;10.024;2023-04-09T08:17:10;12.10;44.30
24636;DHT22;12772;49.794;10.024;2023-04-09T08:21:12;12.10;43.80
24636;DHT22;12772;49.794;10.024;2023-04-09T08:25:14;12.10;43.00
24636;DHT22;12772;49.794;10.024;2023-04-09T08:29:16;12.30;42.50
24636;DHT22;12772;49.794;10.024;2023-04-09T08:33:18;12.40;41.80
24636;DHT22;12772;49.794;10.024;2023-04-09T08:37:20;12.50;42.00
24636;DHT22;12772;49.794;10.024;2023-04-09T08:41:24;12.60;41.80
24636;DHT22;12772;49.794;10.024;2023-04-09T08:45:28;12.70;40.90
24636;DHT22;12772;49.794;10.024;2023-04-09T08:49:30;12.90;40.80
24636;DHT22;12772;49.794;10.024;2023-04-09T08:53:32;13.00;39.80
24636;DHT22;12772;49.794;10.024;2023-04-09T08:57:37;13.00;40.60
24636;DHT22;12772;49.794;10.024;2023-04-09T09:01:39;13.10;40.40
24636;DHT22;12772;49.794;10.024;2023-04-09T09:05:42;13.30;39.80
24636;DHT22;12772;49.794;10.024;2023-04-09T09:13:57;13.70;40.50
24636;DHT22;12772;49.794;10.024;2023-04-09T09:17:59;13.90;39.50
24636;DHT22;12772;49.794;10.024;2023-04-09T09:22:03;14.10;38.10
24636;DHT22;12772;49.794;10.024;2023-04-09T09:26:16;14.10;37.10
24636;DHT22;12772;49.794;10.024;2023-04-09T09:30:26;14.30;37.40
24636;DHT22;12772;49.794;10.024;2023-04-09T09:34:28;14.40;36.00
24636;DHT22;12772;49.794;10.024;2023-04-09T09:38:30;14.40;36.70
24636;DHT22;12772;49.794;10.024;2023-04-09T09:42:33;14.50;36.30
24636;DHT22;12772;49.794;10.024;2023-04-09T09:46:37;14.60;35.10
24636;DHT22;12772;49.794;10.024;2023-04-09T09:50:41;14.70;35.30
24636;DHT22;12772;49.794;10.024;2023-04-09T09:54:47;14.70;33.80
24636;DHT22;12772;49.794;10.024;2023-04-09T09:58:55;14.70;34.70
24636;DHT22;12772;49.794;10.024;2023-04-09T10:03:20;14.80;32.90
24636;DHT22;12772;49.794;10.024;2023-04-09T10:07:23;14.80;32.30
24636;DHT22;12772;49.794;10.024;2023-04-09T10:11:25;14.80;31.30
24636;DHT22;12772;49.794;10.024;2023-04-09T10:15:28;14.70;31.90
24636;DHT22;12772;49.794;10.024;2023-04-09T10:19:30;14.70;31.40
24636;DHT22;12772;49.794;10.024;2023-04-09T10:23:41;14.60;31.80
24636;DHT22;12772;49.794;10.024;2023-04-09T10:27:44;14.80;32.60
24636;DHT22;12772;49.794;10.024;2023-04-09T10:32:05;14.90;32.30
24636;DHT22;12772;49.794;10.024;2023-04-09T10:36:10;15.10;32.50
24636;DHT22;12772;49.794;10.024;2023-04-09T10:40:18;15.40;32.10
24636;DHT22;12772;49.794;10.024;2023-04-09T10:44:25;15.60;31.60
24636;DHT22;12772;49.794;10.024;2023-04-09T10:48:32;15.80;30.90
24636;DHT22;12772;49.794;10.024;2023-04-09T10:52:34;16.00;31.10
24636;DHT22;12772;49.794;10.024;2023-04-09T10:56:39;16.10;29.80
24636;DHT22;12772;49.794;10.024;2023-04-09T11:00:45;16.40;29.50
24636;DHT22;12772;49.794;10.024;2023-04-09T11:09:05;16.70;26.30
24636;DHT22;12772;49.794;10.024;2023-04-09T11:13:11;16.80;25.70
24636;DHT22;12772;49.794;10.024;2023-04-09T11:17:14;16.90;26.40
24636;DHT22;12772;49.794;10.024;2023-04-09T11:21:16;17.00;25.70
24636;DHT22;12772;49.794;10.024;2023-04-09T11:25:24;17.20;26.10
24636;DHT22;12772;49.794;10.024;2023-04-09T11:29:27;17.40;26.30
24636;DHT22;12772;49.794;10.024;2023-04-09T11:33:32;17.60;25.50
24636;DHT22;12772;49.794;10.024;2023-04-09T11:37:35;17.70;25.60
24636;DHT22;12772;49.794;10.024;2023-04-09T11:41:38;17.80;24.60
24636;DHT22;12772;49.794;10.024;2023-04-09T11:45:40;17.90;23.90
24636;DHT22;12772;49.794;10.024;2023-04-09T11:49:43;18.00;22.90
24636;DHT22;12772;49.794;10.024;2023-04-09T11:53:47;18.00;23.00
24636;DHT22;12772;49.794;10.024;2023-04-09T11:57:52;18.10;22.70
24636;DHT22;12772;49.794;10.024;2023-04-09T12:01:58;18.20;22.70
24636;DHT22;12772;49.794;10.024;2023-04-09T12:06:01;18.10;21.40
24636;DHT22;12772;49.794;10.024;2023-04-09T12:10:12;17.90;21.50
24636;DHT22;12772;49.794;10.024;2023-04-09T12:14:15;17.90;22.00
24636;DHT22;12772;49.794;10.024;2023-04-09T12:18:20;17.90;21.80
24636;DHT22;12772;49.794;10.024;2023-04-09T12:22:23;17.90;21.30
24636;DHT22;12772;49.794;10.024;2023-04-09T12:26:25;18.00;21.40
24636;DHT22;12772;49.794;10.024;2023-04-09T12:30:27;18.10;21.90
24636;DHT22;12772;49.794;10.024;2023-04-09T12:34:29;18.20;21.80
24636;DHT22;12772;49.794;10.024;2023-04-09T12:38:31;18.30;22.10
24636;DHT22;12772;49.794;10.024;2023-04-09T12:42:33;18.40;21.60
24636;DHT22;12772;49.794;10.024;2023-04-09T12:46:35;18.40;21.20
24636;DHT22;12772;49.794;10.024;2023-04-09T12:50:37;18.40;21.20
24636;DHT22;12772;49.794;10.024;2023-04-09T12:54:39;18.40;21.80
24636;DHT22;12772;49.794;10.024;2023-04-09T12:58:42;18.40;21.70
24636;DHT22;12772;49.794;10.024;2023-04-09T13:02:44;18.40;22.20
24636;DHT22;12772;49.794;10.024;2023-04-09T13:06:46;18.40;22.10
24636;DHT22;12772;49.794;10.024;2023-04-09T13:10:48;18.20;21.50
24636;DHT22;12772;49.794;10.024;2023-04-09T13:14:52;18.10;21.80
24636;DHT22;12772;49.794;10.024;2023-04-09T13:18:55;18.10;22.10
24636;DHT22;12772;49.794;10.024;2023-04-09T13:22:57;18.20;21.80
24636;DHT22;12772;49.794;10.024;2023-04-09T13:27:02;18.30;22.40
24636;DHT22;12772;49.794;10.024;2023-04-09T13:31:04;18.40;21.60
24636;DHT22;12772;49.794;10.024;2023-04-09T13:35:07;18.50;21.50
24636;DHT22;12772;49.794;10.024;2023-04-09T13:39:10;18.60;21.10
24636;DHT22;12772;49.794;10.024;2023-04-09T13:43:12;18.70;21.70
24636;DHT22;12772;49.794;10.024;2023-04-09T13:47:15;18.90;21.50
24636;DHT22;12772;49.794;10.024;2023-04-09T13:51:17;18.90;20.90
24636;DHT22;12772;49.794;10.024;2023-04-09T13:55:19;19.00;21.20
24636;DHT22;12772;49.794;10.024;2023-04-09T13:59:21;19.00;21.00
24636;DHT22;12772;49.794;10.024;2023-04-09T14:03:23;19.00;21.10
24636;DHT22;12772;49.794;10.024;2023-04-09T14:07:25;19.00;20.80
24636;DHT22;12772;49.794;10.024;2023-04-09T14:11:27;18.80;20.90
24636;DHT22;12772;49.794;10.024;2023-04-09T14:15:29;18.60;20.70
24636;DHT22;12772;49.794;10.024;2023-04-09T14:19:31;18.40;21.00
24636;DHT22;12772;49.794;10.024;2023-04-09T14:23:33;18.30;21.60
24636;DHT22;12772;49.794;10.024;2023-04-09T14:27:35;18.40;21.20
24636;DHT22;12772;49.794;10.024;2023-04-09T14:31:38;18.50;21.50
24636;DHT22;12772;49.794;10.024;2023-04-09T14:35:41;18.50;20.70
24636;DHT22;12772;49.794;10.024;2023-04-09T14:39:43;18.50;21.20
24636;DHT22;12772;49.794;10.024;2023-04-09T14:43:45;18.50;21.00
24636;DHT22;12772;49.794;10.024;2023-04-09T14:47:47;18.40;20.50
24636;DHT22;12772;49.794;10.024;2023-04-09T14:51:49;18.30;20.40
24636;DHT22;12772;49.794;10.024;2023-04-09T14:55:51;18.20;20.90
24636;DHT22;12772;49.794;10.024;2023-04-09T14:59:53;18.20;20.20
24636;DHT22;12772;49.794;10.024;2023-04-09T15:03:55;18.10;20.80
24636;DHT22;12772;49.794;10.024;2023-04-09T15:07:57;18.20;21.60
24636;DHT22;12772;49.794;10.024;2023-04-09T15:11:59;18.20;21.20
24636;DHT22;12772;49.794;10.024;2023-04-09T15:16:02;18.30;20.90
24636;DHT22;12772;49.794;10.024;2023-04-09T15:20:05;18.30;21.00
24636;DHT22;12772;49.794;10.024;2023-04-09T15:24:07;18.40;21.00
24636;DHT22;12772;49.794;10.024;2023-04-09T15:28:09;18.40;20.50
24636;DHT22;12772;49.794;10.024;2023-04-09T15:32:11;18.30;20.50
24636;DHT22;12772;49.794;10.024;2023-04-09T15:36:13;18.20;20.30
24636;DHT22;12772;49.794;10.024;2023-04-09T15:40:16;18.20;20.30
24636;DHT22;12772;49.794;10.024;2023-04-09T15:44:18;18.10;20.20
24636;DHT22;12772;49.794;10.024;2023-04-09T15:48:20;18.00;20.60
24636;DHT22;12772;49.794;10.024;2023-04-09T15:52:22;18.00;20.20
24636;DHT22;12772;49.794;10.024;2023-04-09T15:56:24;17.90;20.50
24636;DHT22;12772;49.794;10.024;2023-04-09T16:00:26;17.90;20.90
24636;DHT22;12772;49.794;10.024;2023-04-09T16:04:28;17.80;20.80
24636;DHT22;12772;49.794;10.024;2023-04-09T16:08:30;17.80;21.20
24636;DHT22;12772;49.794;10.024;2023-04-09T16:12:32;17.80;21.30
24636;DHT22;12772;49.794;10.024;2023-04-09T16:16:35;17.80;21.90
24636;DHT22;12772;49.794;10.024;2023-04-09T16:20:38;17.70;20.90
24636;DHT22;12772;49.794;10.024;2023-04-09T16:24:40;17.60;21.50
24636;DHT22;12772;49.794;10.024;2023-04-09T16:28:42;17.60;21.60
24636;DHT22;12772;49.794;10.024;2023-04-09T16:32:44;17.60;21.60
24636;DHT22;12772;49.794;10.024;2023-04-09T16:36:46;17.60;21.90
24636;DHT22;12772;49.794;10.024;2023-04-09T16:40:48;17.60;21.50
24636;DHT22;12772;49.794;10.024;2023-04-09T16:44:50;17.50;21.20
24636;DHT22;12772;49.794;10.024;2023-04-09T16:48:52;17.40;21.50
24636;DHT22;12772;49.794;10.024;2023-04-09T16:52:54;17.40;21.70
24636;DHT22;12772;49.794;10.024;2023-04-09T16:56:56;17.30;21.30
24636;DHT22;12772;49.794;10.024;2023-04-09T17:00:58;17.20;21.70
24636;DHT22;12772;49.794;10.024;2023-04-09T17:05:01;17.20;22.00
24636;DHT22;12772;49.794;10.024;2023-04-09T17:09:03;17.10;21.80
24636;DHT22;12772;49.794;10.024;2023-04-09T17:13:06;17.10;22.10
24636;DHT22;12772;49.794;10.024;2023-04-09T17:17:08;17.10;22.00
24636;DHT22;12772;49.794;10.024;2023-04-09T17:21:10;17.00;21.90
24636;DHT22;12772;49.794;10.024;2023-04-09T17:25:12;16.90;22.00
24636;DHT22;12772;49.794;10.024;2023-04-09T17:29:14;16.90;22.20
24636;DHT22;12772;49.794;10.024;2023-04-09T17:33:17;16.80;22.30
24636;DHT22;12772;49.794;10.024;2023-04-09T17:37:19;16.70;22.40
24636;DHT22;12772;49.794;10.024;2023-04-09T17:41:22;16.70;22.80
24636;DHT22;12772;49.794;10.024;2023-04-09T17:45:24;16.60;22.70
24636;DHT22;12772;49.794;10.024;2023-04-09T17:49:31;16.60;22.70
24636;DHT22;12772;49.794;10.024;2023-04-09T17:53:33;16.50;22.80
24636;DHT22;12772;49.794;10.024;2023-04-09T17:57:35;16.50;23.10
24636;DHT22;12772;49.794;10.024;2023-04-09T18:01:37;16.40;23.30
24636;DHT22;12772;49.794;10.024;2023-04-09T18:05:40;16.40;24.50
24636;DHT22;12772;49.794;10.024;2023-04-09T18:09:42;16.30;24.40
24636;DHT22;12772;49.794;10.024;2023-04-09T18:13:44;16.20;24.40
24636;DHT22;12772;49.794;10.024;2023-04-09T18:17:47;16.10;24.20
24636;DHT22;12772;49.794;10.024;2023-04-09T18:21:49;16.00;25.20
24636;DHT22;12772;49.794;10.024;2023-04-09T18:25:51;15.80;25.50
24636;DHT22;12772;49.794;10.024;2023-04-09T18:29:56;15.60;25.60
24636;DHT22;12772;49.794;10.024;2023-04-09T18:33:59;15.50;26.10
24636;DHT22;12772;49.794;10.024;2023-04-09T18:38:01;15.30;26.50
24636;DHT22;12772;49.794;10.024;2023-04-09T18:42:03;15.20;27.00
24636;DHT22;12772;49.794;10.024;2023-04-09T18:46:05;15.00;27.40
24636;DHT22;12772;49.794;10.024;2023-04-09T18:50:07;14.80;27.60
24636;DHT22;12772;49.794;10.024;2023-04-09T18:54:09;14.70;27.90
24636;DHT22;12772;49.794;10.024;2023-04-09T18:58:11;14.60;28.20
24636;DHT22;12772;49.794;10.024;2023-04-09T19:02:14;14.50;28.50
24636;DHT22;12772;49.794;10.024;2023-04-09T19:06:17;14.40;28.40
24636;DHT22;12772;49.794;10.024;2023-04-09T19:10:20;14.30;28.60
24636;DHT22;12772;49.794;10.024;2023-04-09T19:14:22;14.20;28.90
24636;DHT22;12772;49.794;10.024;2023-04-09T19:18:24;14.10;29.10
24636;DHT22;12772;49.794;10.024;2023-04-09T19:22:26;13.90;29.40
24636;DHT22;12772;49.794;10.024;2023-04-09T19:26:29;13.80;29.50
24636;DHT22;12772;49.794;10.024;2023-04-09T19:30:38;13.70;29.80
24636;DHT22;12772;49.794;10.024;2023-04-09T19:34:41;13.60;30.20
24636;DHT22;12772;49.794;10.024;2023-04-09T19:38:43;13.50;30.40
24636;DHT22;12772;49.794;10.024;2023-04-09T19:42:45;13.40;30.60
24636;DHT22;12772;49.794;10.024;2023-04-09T19:46:47;13.30;30.60
24636;DHT22;12772;49.794;10.024;2023-04-09T19:50:49;13.20;30.60
24636;DHT22;12772;49.794;10.024;2023-04-09T19:54:53;13.10;30.60
24636;DHT22;12772;49.794;10.024;2023-04-09T19:58:56;13.00;30.80
24636;DHT22;12772;49.794;10.024;2023-04-09T20:02:58;12.90;30.90
24636;DHT22;12772;49.794;10.024;2023-04-09T20:07:01;12.90;31.00
24636;DHT22;12772;49.794;10.024;2023-04-09T20:11:04;12.80;31.00
24636;DHT22;12772;49.794;10.024;2023-04-09T20:15:07;12.70;31.30
24636;DHT22;12772;49.794;10.024;2023-04-09T20:19:09;12.60;31.50
24636;DHT22;12772;49.794;10.024;2023-04-09T20:23:11;12.60;31.90
24636;DHT22;12772;49.794;10.024;2023-04-09T20:27:13;12.50;31.70
24636;DHT22;12772;49.794;10.024;2023-04-09T20:31:15;12.50;32.10
24636;DHT22;12772;49.794;10.024;2023-04-09T20:35:18;12.40;32.30
24636;DHT22;12772;49.794;10.024;2023-04-09T20:39:21;12.40;32.60
24636;DHT22;12772;49.794;10.024;2023-04-09T20:43:24;12.40;32.70
24636;DHT22;12772;49.794;10.024;2023-04-09T20:47:27;12.30;32.50
24636;DHT22;12772;49.794;10.024;2023-04-09T20:51:29;12.20;32.40
24636;DHT22;12772;49.794;10.024;2023-04-09T20:55:31;12.20;32.40
24636;DHT22;12772;49.794;10.024;2023-04-09T20:59:33;12.10;32.30
24636;DHT22;12772;49.794;10.024;2023-04-09T21:03:36;12.00;32.20
24636;DHT22;12772;49.794;10.024;2023-04-09T21:07:40;12.00;32.20
24636;DHT22;12772;49.794;10.024;2023-04-09T21:11:42;11.90;32.10
24636;DHT22;12772;49.794;10.024;2023-04-09T21:15:44;11.80;32.00
24636;DHT22;12772;49.794;10.024;2023-04-09T21:19:46;11.80;32.00
24636;DHT22;12772;49.794;10.024;2023-04-09T21:23:49;11.80;32.10
24636;DHT22;12772;49.794;10.024;2023-04-09T21:27:51;11.50;31.90
24636;DHT22;12772;49.794;10.024;2023-04-09T21:31:53;11.70;32.20
24636;DHT22;12772;49.794;10.024;2023-04-09T21:35:55;11.70;32.40
24636;DHT22;12772;49.794;10.024;2023-04-09T21:39:58;11.70;32.60
24636;DHT22;12772;49.794;10.024;2023-04-09T21:44:00;12.00;33.00
24636;DHT22;12772;49.794;10.024;2023-04-09T21:48:07;11.60;32.60
24636;DHT22;12772;49.794;10.024;2023-04-09T21:52:10;11.60;32.70
24636;DHT22;12772;49.794;10.024;2023-04-09T21:56:14;11.50;32.70
24636;DHT22;12772;49.794;10.024;2023-04-09T22:00:16;11.50;33.00
24636;DHT22;12772;49.794;10.024;2023-04-09T22:04:19;11.40;33.10
24636;DHT22;12772;49.794;10.024;2023-04-09T22:08:21;11.30;33.30
24636;DHT22;12772;49.794;10.024;2023-04-09T22:12:23;11.30;33.40
24636;DHT22;12772;49.794;10.024;2023-04-09T22:16:25;11.30;33.60
24636;DHT22;12772;49.794;10.024;2023-04-09T22:20:28;11.30;33.40
24636;DHT22;12772;49.794;10.024;2023-04-09T22:24:30;11.20;33.20
24636;DHT22;12772;49.794;10.024;2023-04-09T22:28:33;11.20;33.40
24636;DHT22;12772;49.794;10.024;2023-04-09T22:32:35;11.10;33.40
24636;DHT22;12772;49.794;10.024;2023-04-09T22:36:37;11.30;33.80
24636;DHT22;12772;49.794;10.024;2023-04-09T22:40:39;11.10;33.60
24636;DHT22;12772;49.794;10.024;2023-04-09T22:44:42;11.00;33.60
24636;DHT22;12772;49.794;10.024;2023-04-09T22:48:44;11.00;33.80
24636;DHT22;12772;49.794;10.024;2023-04-09T22:52:46;10.70;33.30
24636;DHT22;12772;49.794;10.024;2023-04-09T22:56:48;10.90;33.60
24636;DHT22;12772;49.794;10.024;2023-04-09T23:00:50;10.90;33.60
24636;DHT22;12772;49.794;10.024;2023-04-09T23:04:53;10.90;33.50
24636;DHT22;12772;49.794;10.024;2023-04-09T23:08:55;10.60;33.40
24636;DHT22;12772;49.794;10.024;2023-04-09T23:12:58;10.90;33.80
24636;DHT22;12772;49.794;10.024;2023-04-09T23:17:00;10.80;33.80
24636;DHT22;12772;49.794;10.024;2023-04-09T23:21:04;10.80;33.90
24636;DHT22;12772;49.794;10.024;2023-04-09T23:25:07;10.80;34.10
24636;DHT22;12772;49.794;10.024;2023-04-09T23:29:09;10.70;34.10
24636;DHT22;12772;49.794;10.024;2023-04-09T23:33:12;10.50;33.90
24636;DHT22;12772;49.794;10.024;2023-04-09T23:37:14;10.70;34.00
24636;DHT22;12772;49.794;10.024;2023-04-09T23:41:16;10.70;34.00
24636;DHT22;12772;49.794;10.024;2023-04-09T23:45:18;10.50;34.00
24636;DHT22;12772;49.794;10.024;2023-04-09T23:49:25;10.70;34.30
24636;DHT22;12772;49.794;10.024;2023-04-09T23:53:27;10.60;34.30
24636;DHT22;12772;49.794;10.024;2023-04-09T23:57:29;10.40;34.20
